Larry J. Hebert — WDF5953 — position and weather

sailwx.info

Track history (hours):
 
Tides and Currents Weather Stations Pressure Air Temp Water Temp Dewpoint Dewpoint Depression Visibility Wind Speed Wind Dir Waves Ship Positions

Larry J. Hebert

Owner: Gulf Coast Tugs, Inc., Larose, LA. More information available from US FCC via Universal Licensing System and Coast Guard Vessel Documentation Center.

Last reported at 2017-Oct-17 15:15 UTC. Time now 2017-Oct-18 01:56 UTC.
Position N 41°12' W 072°47'.

Length 28 m; draft 2.3 m.

Type: Tug. MMSI: 367469050.

Date/timePositionNaut miles runAvg speedWind from/ knotsBaromVisibWave heightAir tempDewpointWater temp
2017-Oct-17 15:15N 41°12' W 072°47'2 6.5
2017-Oct-17 14:59N 41°13' W 072°45'3 6.6
2017-Oct-17 14:30N 41°14' W 072°41'3 6.9
2017-Oct-17 14:00N 41°14' W 072°37'2 4.8
2017-Oct-17 13:30N 41°16' W 072°34'0 0.0
2017-Oct-17 13:00N 41°16' W 072°34'0 0.0
2017-Oct-17 12:30N 41°16' W 072°34'0 0.0
2017-Oct-17 12:00N 41°16' W 072°34'0 0.0
2017-Oct-17 11:30N 41°16' W 072°34'0 0.0
2017-Oct-17 11:00N 41°16' W 072°34'0 0.0
2017-Oct-17 10:30N 41°16' W 072°34'0 0.0
2017-Oct-17 10:00N 41°16' W 072°34'0 0.0
2017-Oct-17 09:30N 41°16' W 072°34'0 0.0
2017-Oct-17 09:00N 41°16' W 072°34'0 0.0
2017-Oct-17 08:30N 41°16' W 072°34'0 0.0
2017-Oct-17 08:00N 41°16' W 072°34'0 0.0
2017-Oct-17 07:30N 41°16' W 072°34'0 0.0
2017-Oct-17 07:00N 41°16' W 072°34'0 0.0
2017-Oct-17 06:30N 41°16' W 072°34'0 0.0
2017-Oct-17 06:00N 41°16' W 072°34'0 0.0
2017-Oct-17 05:30N 41°16' W 072°34'0 0.0
2017-Oct-17 05:00N 41°16' W 072°34'0 0.0
2017-Oct-17 04:30N 41°16' W 072°34'0 0.5
2017-Oct-17 04:00N 41°15' W 072°34'3 5.8
2017-Oct-17 03:30N 41°14' W 072°37'3 6.9
2017-Oct-17 03:00N 41°13' W 072°42'3 6.5
2017-Oct-17 02:30N 41°13' W 072°46'2 0.1
2017-Oct-16 08:25N 41°12' W 072°49'2 5.8
2017-Oct-16 08:00N 41°13' W 072°46'3 5.6
2017-Oct-16 07:30N 41°13' W 072°42'3 5.3
2017-Oct-16 07:00N 41°14' W 072°39'2 4.9
2017-Oct-16 06:30N 41°15' W 072°36'1 3.0
2017-Oct-16 06:00N 41°15' W 072°34'0 0.7
2017-Oct-16 05:30N 41°16' W 072°34'0 0.4
2017-Oct-16 05:00N 41°16' W 072°34'0 0.0
2017-Oct-16 04:30N 41°16' W 072°34'0 0.1
2017-Oct-16 04:00N 41°16' W 072°34'0 0.1
2017-Oct-16 03:30N 41°16' W 072°34'0 0.0
2017-Oct-16 03:00N 41°16' W 072°34'0 0.0
2017-Oct-16 02:30N 41°16' W 072°34'0 0.0
2017-Oct-16 02:00N 41°16' W 072°34'0 0.0
2017-Oct-16 01:30N 41°16' W 072°34'0 0.0
2017-Oct-16 01:00N 41°16' W 072°34'0 0.0
2017-Oct-16 00:30N 41°16' W 072°34'0 0.1
2017-Oct-16 00:00N 41°16' W 072°34'2 3.4
2017-Oct-15 23:30N 41°15' W 072°36'3 5.3
2017-Oct-15 23:00N 41°14' W 072°39'3 5.1
2017-Oct-15 22:30N 41°13' W 072°43'3 5.2
2017-Oct-15 21:52N 41°12' W 072°47'1 0.1
2017-Oct-15 10:01N 41°12' W 072°49'1 6.6
2017-Oct-15 09:51N 41°13' W 072°47'2 6.8
2017-Oct-15 09:30N 41°13' W 072°44'4 7.1
2017-Oct-15 09:00N 41°14' W 072°40'3 6.8
2017-Oct-15 08:30N 41°15' W 072°35'1 2.7
2017-Oct-15 08:00N 41°16' W 072°34'0 0.0
2017-Oct-15 07:30N 41°16' W 072°34'0 0.0
2017-Oct-15 07:00N 41°16' W 072°34'0 0.0
2017-Oct-15 06:30N 41°16' W 072°34'0 0.1
2017-Oct-15 06:00N 41°16' W 072°34'0 0.1
2017-Oct-15 05:30N 41°16' W 072°34'0 0.0
2017-Oct-15 05:00N 41°16' W 072°34'0 0.0
2017-Oct-15 04:30N 41°16' W 072°34'0 0.0
2017-Oct-15 04:00N 41°16' W 072°34'0 0.0
2017-Oct-15 03:30N 41°16' W 072°34'1 2.6
2017-Oct-15 03:00N 41°15' W 072°35'3 6.5
2017-Oct-15 02:30N 41°14' W 072°39'3 6.5
2017-Oct-15 02:00N 41°13' W 072°44'3 0.2
2017-Oct-14 07:53N 41°12' W 072°48'2 5.8
2017-Oct-14 07:29N 41°13' W 072°45'3 6.2
2017-Oct-14 07:00N 41°14' W 072°41'3 6.3
2017-Oct-14 06:30N 41°14' W 072°37'2 4.9
2017-Oct-14 06:00N 41°16' W 072°34'0 0.2
2017-Oct-14 05:30N 41°16' W 072°34'0 0.0
2017-Oct-14 05:00N 41°16' W 072°34'0 0.0
2017-Oct-14 04:30N 41°16' W 072°34'0 0.0
2017-Oct-14 04:00N 41°16' W 072°34'0 0.0
2017-Oct-14 03:30N 41°16' W 072°34'0 0.0
2017-Oct-14 03:00N 41°16' W 072°34'0 0.0
2017-Oct-14 02:30N 41°16' W 072°34'0 0.0
2017-Oct-14 02:00N 41°16' W 072°34'0 0.0
2017-Oct-14 01:27N 41°16' W 072°34'0 0.1
2017-Oct-14 00:49N 41°16' W 072°34'1 2.8
2017-Oct-14 00:22N 41°15' W 072°35'3 4.7
2017-Oct-13 23:46N 41°14' W 072°39'2 5.7
2017-Oct-13 23:23N 41°13' W 072°42'2 5.4
2017-Oct-13 22:58N 41°13' W 072°45'3 0.1
2017-Oct-12 14:03N 41°11' W 072°48'0 9.6
2017-Oct-12 14:00N 41°11' W 072°48'5 9.4
2017-Oct-12 13:30N 41°13' W 072°42'4 8.2
2017-Oct-12 13:00N 41°14' W 072°37'2 4.9
2017-Oct-12 12:30N 41°16' W 072°34'0 0.3
2017-Oct-12 12:00N 41°16' W 072°34'0 0.3
2017-Oct-12 11:30N 41°16' W 072°34'0 0.0
2017-Oct-12 11:00N 41°16' W 072°34'0 0.0
2017-Oct-12 10:30N 41°16' W 072°34'0 0.0
2017-Oct-12 10:00N 41°16' W 072°34'0 0.0
2017-Oct-12 09:30N 41°16' W 072°34'0 0.0
2017-Oct-12 09:00N 41°16' W 072°34'0 0.0
2017-Oct-12 08:30N 41°16' W 072°34'0 0.0
2017-Oct-12 08:00N 41°16' W 072°34'0 0.0
2017-Oct-12 07:30N 41°16' W 072°34'0 0.0
2017-Oct-12 07:00N 41°16' W 072°34'0 0.0
2017-Oct-12 06:30N 41°16' W 072°34'0 0.0
2017-Oct-12 06:00N 41°16' W 072°34'0 0.0
2017-Oct-12 05:30N 41°16' W 072°34'0 0.0
2017-Oct-12 05:00N 41°16' W 072°34'0 0.1
2017-Oct-12 04:30N 41°16' W 072°34'0 0.0
2017-Oct-12 04:00N 41°16' W 072°34'0 0.1
2017-Oct-12 03:30N 41°16' W 072°34'0 0.0
2017-Oct-12 03:00N 41°16' W 072°34'0 0.0
2017-Oct-12 02:30N 41°16' W 072°34'0 0.0
2017-Oct-12 02:00N 41°16' W 072°34'0 0.0
2017-Oct-12 01:30N 41°16' W 072°34'0 0.0
2017-Oct-12 01:00N 41°16' W 072°34'0 0.0
2017-Oct-12 00:30N 41°16' W 072°34'0 0.0
2017-Oct-12 00:00N 41°16' W 072°34'0 0.0
2017-Oct-11 23:30N 41°16' W 072°34'0 0.0
2017-Oct-11 23:00N 41°16' W 072°34'0 0.0
2017-Oct-11 22:30N 41°16' W 072°34'0 0.0
2017-Oct-11 22:00N 41°16' W 072°34'0 0.0
2017-Oct-11 21:30N 41°16' W 072°34'0 0.0
2017-Oct-11 21:00N 41°16' W 072°34'0 0.0
2017-Oct-11 20:30N 41°16' W 072°34'0 0.0
2017-Oct-11 20:00N 41°16' W 072°34'0 0.0
2017-Oct-11 19:30N 41°16' W 072°34'0 0.1
2017-Oct-11 19:00N 41°16' W 072°34'0 0.0
2017-Oct-11 18:30N 41°16' W 072°34'0 0.1
2017-Oct-11 18:00N 41°16' W 072°34'0 0.0
2017-Oct-11 17:30N 41°16' W 072°34'0 0.0
2017-Oct-11 17:00N 41°16' W 072°34'0 0.0
2017-Oct-11 00:00N 41°16' W 072°34'0 0.0
2017-Oct-10 23:30N 41°16' W 072°34'0 0.0
2017-Oct-10 23:00N 41°16' W 072°34'0 0.0
2017-Oct-10 22:30N 41°16' W 072°34'0 0.1
2017-Oct-10 22:00N 41°16' W 072°34'0 0.1
2017-Oct-10 21:30N 41°16' W 072°34'0 0.0
2017-Oct-10 21:00N 41°16' W 072°34'0 0.1
2017-Oct-10 20:30N 41°16' W 072°34'0 0.0
2017-Oct-10 20:00N 41°16' W 072°34'0 0.0
2017-Oct-10 19:30N 41°16' W 072°34'0 0.0
2017-Oct-10 19:00N 41°16' W 072°34'0 0.0
2017-Oct-10 18:30N 41°16' W 072°34'0 0.0
2017-Oct-10 18:00N 41°16' W 072°34'0 0.0
2017-Oct-10 17:30N 41°16' W 072°34'0 0.0
2017-Oct-10 17:00N 41°16' W 072°34'0 0.0
2017-Oct-10 16:30N 41°16' W 072°34'0 0.0
2017-Oct-10 16:00N 41°16' W 072°34'0 0.0
2017-Oct-10 15:30N 41°16' W 072°34'0 0.0
2017-Oct-10 15:00N 41°16' W 072°34'0 0.0
2017-Oct-10 14:00N 41°16' W 072°34'0 0.0
2017-Oct-10 13:30N 41°16' W 072°34'0 0.0
2017-Oct-10 13:00N 41°16' W 072°34'0 0.0
2017-Oct-10 12:30N 41°16' W 072°34'0 0.1
2017-Oct-10 12:00N 41°16' W 072°34'0 0.0
2017-Oct-10 11:30N 41°16' W 072°34'0 0.0
2017-Oct-10 11:00N 41°16' W 072°34'0 0.0
2017-Oct-10 10:30N 41°16' W 072°34'0 0.0
2017-Oct-10 10:00N 41°16' W 072°34'0 0.0
2017-Oct-10 09:30N 41°16' W 072°34'0 0.0
2017-Oct-10 09:00N 41°16' W 072°34'0 0.0
2017-Oct-10 08:30N 41°16' W 072°34'0 0.0
2017-Oct-10 08:00N 41°16' W 072°34'0 0.0
2017-Oct-10 07:30N 41°16' W 072°34'0 0.0
2017-Oct-10 07:00N 41°16' W 072°34'0 0.0
2017-Oct-10 06:30N 41°16' W 072°34'0 0.0
2017-Oct-10 06:00N 41°16' W 072°34'0 0.0
2017-Oct-10 05:30N 41°16' W 072°34'0 0.1
2017-Oct-10 05:00N 41°16' W 072°34'0 0.1
2017-Oct-10 04:30N 41°16' W 072°34'0 0.0
2017-Oct-10 04:00N 41°16' W 072°34'0 0.0
2017-Oct-10 03:30N 41°16' W 072°34'0 0.0
2017-Oct-10 03:00N 41°16' W 072°34'0 0.0
2017-Oct-10 02:30N 41°16' W 072°34'0 0.0
2017-Oct-10 02:00N 41°16' W 072°34'0 0.0
2017-Oct-10 01:30N 41°16' W 072°34'0 0.0
2017-Oct-10 01:00N 41°16' W 072°34'0 0.0
2017-Oct-10 00:30N 41°16' W 072°34'0 0.1
2017-Oct-10 00:00N 41°16' W 072°34'0 0.1
2017-Oct-09 23:30N 41°16' W 072°34'0 0.1
2017-Oct-09 23:00N 41°16' W 072°34'0 0.0
2017-Oct-09 22:30N 41°16' W 072°34'0 0.0
2017-Oct-09 22:00N 41°16' W 072°34'0 0.1
2017-Oct-09 21:30N 41°16' W 072°34'0 0.1
2017-Oct-09 21:00N 41°16' W 072°34'0 0.1
2017-Oct-09 20:30N 41°16' W 072°34'0 0.2
2017-Oct-09 20:00N 41°16' W 072°34'0 0.2
2017-Oct-09 19:30N 41°16' W 072°34'0 0.1
2017-Oct-09 19:00N 41°16' W 072°34'0 0.0
2017-Oct-09 18:30N 41°16' W 072°34'0 0.0
2017-Oct-09 18:00N 41°16' W 072°34'0 0.0
2017-Oct-09 17:30N 41°16' W 072°34'0 0.0
2017-Oct-09 17:00N 41°16' W 072°34'0 0.1
2017-Oct-09 16:30N 41°16' W 072°34'0 0.0
2017-Oct-09 16:00N 41°16' W 072°34'0 0.0
2017-Oct-09 15:30N 41°16' W 072°34'0 0.0
2017-Oct-09 15:00N 41°16' W 072°34'0 0.0
2017-Oct-09 14:30N 41°16' W 072°34'0 0.0
2017-Oct-09 14:00N 41°16' W 072°34'0 0.0
2017-Oct-09 13:30N 41°16' W 072°34'0 0.0
2017-Oct-09 13:00N 41°16' W 072°34'0 0.0
2017-Oct-09 12:30N 41°16' W 072°34'0 0.0
2017-Oct-09 12:00N 41°16' W 072°34'0 0.0
2017-Oct-09 11:30N 41°16' W 072°34'0 0.0
2017-Oct-09 11:00N 41°16' W 072°34'0 0.0
2017-Oct-09 10:30N 41°16' W 072°34'0 0.0
2017-Oct-09 10:00N 41°16' W 072°34'0 0.0
2017-Oct-09 09:30N 41°16' W 072°34'0 0.0
2017-Oct-09 09:00N 41°16' W 072°34'0 0.0
2017-Oct-09 08:30N 41°16' W 072°34'0 0.0
2017-Oct-09 08:00N 41°16' W 072°34'0 0.0
2017-Oct-09 07:30N 41°16' W 072°34'0 0.0
2017-Oct-09 07:00N 41°16' W 072°34'0 0.0
2017-Oct-09 06:30N 41°16' W 072°34'0 0.0
2017-Oct-09 06:00N 41°16' W 072°34'0 0.0
2017-Oct-09 05:30N 41°16' W 072°34'0 0.0
2017-Oct-09 05:00N 41°16' W 072°34'0 0.0
2017-Oct-09 04:30N 41°16' W 072°34'0 0.0
2017-Oct-09 04:00N 41°16' W 072°34'0 0.0
2017-Oct-09 03:30N 41°16' W 072°34'0 0.0
2017-Oct-09 03:00N 41°16' W 072°34'0 0.0
2017-Oct-09 02:30N 41°16' W 072°34'0 0.0
2017-Oct-09 02:00N 41°16' W 072°34'0 0.0
2017-Oct-09 01:30N 41°16' W 072°34'0 0.0
2017-Oct-09 01:00N 41°16' W 072°34'0 0.0
2017-Oct-09 00:30N 41°16' W 072°34'0 0.0
2017-Oct-09 00:00N 41°16' W 072°34'0 0.0
2017-Oct-08 23:30N 41°16' W 072°34'0 0.0
2017-Oct-08 23:00N 41°16' W 072°34'0 0.0
2017-Oct-08 22:30N 41°16' W 072°34'0 0.0
2017-Oct-08 22:00N 41°16' W 072°34'0 0.0
2017-Oct-08 21:30N 41°16' W 072°34'0 0.0
2017-Oct-08 21:00N 41°16' W 072°34'0 0.0
2017-Oct-08 20:30N 41°16' W 072°34'0 0.0
2017-Oct-08 20:00N 41°16' W 072°34'0 0.0
2017-Oct-08 19:30N 41°16' W 072°34'0 0.0
2017-Oct-08 19:00N 41°16' W 072°34'0 0.0
2017-Oct-08 18:30N 41°16' W 072°34'0 0.0
2017-Oct-08 18:00N 41°16' W 072°34'0 0.0
2017-Oct-08 17:30N 41°16' W 072°34'0 0.0
2017-Oct-08 17:00N 41°16' W 072°34'0 0.0
2017-Oct-08 16:30N 41°16' W 072°34'0 0.0
2017-Oct-08 16:00N 41°16' W 072°34'0 0.0
2017-Oct-08 15:30N 41°16' W 072°34'0 0.0
2017-Oct-08 15:00N 41°16' W 072°34'0 0.0
2017-Oct-08 14:30N 41°16' W 072°34'0 0.0
2017-Oct-08 14:00N 41°16' W 072°34'0 0.0
2017-Oct-08 13:30N 41°16' W 072°34'0 0.0
2017-Oct-08 13:00N 41°16' W 072°34'0 0.0
2017-Oct-08 12:30N 41°16' W 072°34'0 0.0
2017-Oct-08 12:00N 41°16' W 072°34'0 0.0
2017-Oct-08 11:30N 41°16' W 072°34'0 0.0
2017-Oct-08 11:00N 41°16' W 072°34'0 0.0
2017-Oct-08 10:30N 41°16' W 072°34'0 0.0
2017-Oct-08 10:00N 41°16' W 072°34'0 0.0
2017-Oct-08 09:30N 41°16' W 072°34'0 0.0
2017-Oct-08 09:00N 41°16' W 072°34'0 0.0
2017-Oct-08 08:30N 41°16' W 072°34'0 0.0
2017-Oct-08 08:00N 41°16' W 072°34'0 0.0
2017-Oct-08 07:30N 41°16' W 072°34'0 0.0
2017-Oct-08 07:00N 41°16' W 072°34'0 0.0
2017-Oct-08 06:30N 41°16' W 072°34'0 0.0
2017-Oct-08 06:00N 41°16' W 072°34'0 0.0
2017-Oct-08 05:30N 41°16' W 072°34'0 0.0
2017-Oct-08 05:00N 41°16' W 072°34'0 0.0
2017-Oct-08 04:30N 41°16' W 072°34'0 0.0
2017-Oct-08 04:00N 41°16' W 072°34'0 0.0
2017-Oct-08 03:30N 41°16' W 072°34'0 0.0
2017-Oct-08 03:00N 41°16' W 072°34'0 0.0
2017-Oct-08 02:30N 41°16' W 072°34'0 0.0
2017-Oct-08 02:00N 41°16' W 072°34'0 0.0
2017-Oct-08 01:30N 41°16' W 072°34'0 0.0
2017-Oct-08 01:00N 41°16' W 072°34'0 0.0
2017-Oct-08 00:30N 41°16' W 072°34'0 0.0
2017-Oct-08 00:00N 41°16' W 072°34'0 0.0
2017-Oct-07 23:30N 41°16' W 072°34'0 0.0
2017-Oct-07 23:00N 41°16' W 072°34'0 0.0
2017-Oct-07 22:30N 41°16' W 072°34'0 0.0
2017-Oct-07 22:00N 41°16' W 072°34'0 0.0
2017-Oct-07 21:30N 41°16' W 072°34'0 0.0
2017-Oct-07 21:00N 41°16' W 072°34'0 0.0
2017-Oct-07 20:30N 41°16' W 072°34'0 0.0
2017-Oct-07 20:00N 41°16' W 072°34'0 0.0
2017-Oct-07 19:30N 41°16' W 072°34'0 0.0
2017-Oct-07 19:00N 41°16' W 072°34'0 0.0
2017-Oct-07 18:30N 41°16' W 072°34'0 0.0
2017-Oct-07 18:00N 41°16' W 072°34'0 0.0
2017-Oct-07 17:30N 41°16' W 072°34'0 0.0
2017-Oct-07 17:00N 41°16' W 072°34'0 0.0
2017-Oct-07 16:30N 41°16' W 072°34'0 0.0
2017-Oct-07 16:00N 41°16' W 072°34'0 0.0
2017-Oct-07 15:30N 41°16' W 072°34'  
Track history (hours):
 
Tides and Currents Weather Stations Pressure Air Temp Water Temp Dewpoint Dewpoint Depression Visibility Wind Speed Wind Dir Waves Ship Positions

Larry J. Hebert

Owner: Gulf Coast Tugs, Inc., Larose, LA. More information available from US FCC via Universal Licensing System and Coast Guard Vessel Documentation Center.

Last reported at 2017-Oct-17 15:15 UTC. Time now 2017-Oct-18 01:56 UTC.
Position N 41°12' W 072°47'.

Length 28 m; draft 2.3 m.

Type: Tug. MMSI: 367469050.

Date/timePositionNaut miles runAvg speedWind from/ knotsBaromVisibWave heightAir tempDewpointWater temp
2017-Oct-17 15:15N 41°12' W 072°47'2 6.5
2017-Oct-17 14:59N 41°13' W 072°45'3 6.6
2017-Oct-17 14:30N 41°14' W 072°41'3 6.9
2017-Oct-17 14:00N 41°14' W 072°37'2 4.8
2017-Oct-17 13:30N 41°16' W 072°34'0 0.0
2017-Oct-17 13:00N 41°16' W 072°34'0 0.0
2017-Oct-17 12:30N 41°16' W 072°34'0 0.0
2017-Oct-17 12:00N 41°16' W 072°34'0 0.0
2017-Oct-17 11:30N 41°16' W 072°34'0 0.0
2017-Oct-17 11:00N 41°16' W 072°34'0 0.0
2017-Oct-17 10:30N 41°16' W 072°34'0 0.0
2017-Oct-17 10:00N 41°16' W 072°34'0 0.0
2017-Oct-17 09:30N 41°16' W 072°34'0 0.0
2017-Oct-17 09:00N 41°16' W 072°34'0 0.0
2017-Oct-17 08:30N 41°16' W 072°34'0 0.0
2017-Oct-17 08:00N 41°16' W 072°34'0 0.0
2017-Oct-17 07:30N 41°16' W 072°34'0 0.0
2017-Oct-17 07:00N 41°16' W 072°34'0 0.0
2017-Oct-17 06:30N 41°16' W 072°34'0 0.0
2017-Oct-17 06:00N 41°16' W 072°34'0 0.0
2017-Oct-17 05:30N 41°16' W 072°34'0 0.0
2017-Oct-17 05:00N 41°16' W 072°34'0 0.0
2017-Oct-17 04:30N 41°16' W 072°34'0 0.5
2017-Oct-17 04:00N 41°15' W 072°34'3 5.8
2017-Oct-17 03:30N 41°14' W 072°37'3 6.9
2017-Oct-17 03:00N 41°13' W 072°42'3 6.5
2017-Oct-17 02:30N 41°13' W 072°46'2 0.1
2017-Oct-16 08:25N 41°12' W 072°49'2 5.8
2017-Oct-16 08:00N 41°13' W 072°46'3 5.6
2017-Oct-16 07:30N 41°13' W 072°42'3 5.3
2017-Oct-16 07:00N 41°14' W 072°39'2 4.9
2017-Oct-16 06:30N 41°15' W 072°36'1 3.0
2017-Oct-16 06:00N 41°15' W 072°34'0 0.7
2017-Oct-16 05:30N 41°16' W 072°34'0 0.4
2017-Oct-16 05:00N 41°16' W 072°34'0 0.0
2017-Oct-16 04:30N 41°16' W 072°34'0 0.1
2017-Oct-16 04:00N 41°16' W 072°34'0 0.1
2017-Oct-16 03:30N 41°16' W 072°34'0 0.0
2017-Oct-16 03:00N 41°16' W 072°34'0 0.0
2017-Oct-16 02:30N 41°16' W 072°34'0 0.0
2017-Oct-16 02:00N 41°16' W 072°34'0 0.0
2017-Oct-16 01:30N 41°16' W 072°34'0 0.0
2017-Oct-16 01:00N 41°16' W 072°34'0 0.0
2017-Oct-16 00:30N 41°16' W 072°34'0 0.1
2017-Oct-16 00:00N 41°16' W 072°34'2 3.4
2017-Oct-15 23:30N 41°15' W 072°36'3 5.3
2017-Oct-15 23:00N 41°14' W 072°39'3 5.1
2017-Oct-15 22:30N 41°13' W 072°43'3 5.2
2017-Oct-15 21:52N 41°12' W 072°47'1 0.1
2017-Oct-15 10:01N 41°12' W 072°49'1 6.6
2017-Oct-15 09:51N 41°13' W 072°47'2 6.8
2017-Oct-15 09:30N 41°13' W 072°44'4 7.1
2017-Oct-15 09:00N 41°14' W 072°40'3 6.8
2017-Oct-15 08:30N 41°15' W 072°35'1 2.7
2017-Oct-15 08:00N 41°16' W 072°34'0 0.0
2017-Oct-15 07:30N 41°16' W 072°34'0 0.0
2017-Oct-15 07:00N 41°16' W 072°34'0 0.0
2017-Oct-15 06:30N 41°16' W 072°34'0 0.1
2017-Oct-15 06:00N 41°16' W 072°34'0 0.1
2017-Oct-15 05:30N 41°16' W 072°34'0 0.0
2017-Oct-15 05:00N 41°16' W 072°34'0 0.0
2017-Oct-15 04:30N 41°16' W 072°34'0 0.0
2017-Oct-15 04:00N 41°16' W 072°34'0 0.0
2017-Oct-15 03:30N 41°16' W 072°34'1 2.6
2017-Oct-15 03:00N 41°15' W 072°35'3 6.5
2017-Oct-15 02:30N 41°14' W 072°39'3 6.5
2017-Oct-15 02:00N 41°13' W 072°44'3 0.2
2017-Oct-14 07:53N 41°12' W 072°48'2 5.8
2017-Oct-14 07:29N 41°13' W 072°45'3 6.2
2017-Oct-14 07:00N 41°14' W 072°41'3 6.3
2017-Oct-14 06:30N 41°14' W 072°37'2 4.9
2017-Oct-14 06:00N 41°16' W 072°34'0 0.2
2017-Oct-14 05:30N 41°16' W 072°34'0 0.0
2017-Oct-14 05:00N 41°16' W 072°34'0 0.0
2017-Oct-14 04:30N 41°16' W 072°34'0 0.0
2017-Oct-14 04:00N 41°16' W 072°34'0 0.0
2017-Oct-14 03:30N 41°16' W 072°34'0 0.0
2017-Oct-14 03:00N 41°16' W 072°34'0 0.0
2017-Oct-14 02:30N 41°16' W 072°34'0 0.0
2017-Oct-14 02:00N 41°16' W 072°34'0 0.0
2017-Oct-14 01:27N 41°16' W 072°34'0 0.1
2017-Oct-14 00:49N 41°16' W 072°34'1 2.8
2017-Oct-14 00:22N 41°15' W 072°35'3 4.7
2017-Oct-13 23:46N 41°14' W 072°39'2 5.7
2017-Oct-13 23:23N 41°13' W 072°42'2 5.4
2017-Oct-13 22:58N 41°13' W 072°45'3 0.1
2017-Oct-12 14:03N 41°11' W 072°48'0 9.6
2017-Oct-12 14:00N 41°11' W 072°48'5 9.4
2017-Oct-12 13:30N 41°13' W 072°42'4 8.2
2017-Oct-12 13:00N 41°14' W 072°37'2 4.9
2017-Oct-12 12:30N 41°16' W 072°34'0 0.3
2017-Oct-12 12:00N 41°16' W 072°34'0 0.3
2017-Oct-12 11:30N 41°16' W 072°34'0 0.0
2017-Oct-12 11:00N 41°16' W 072°34'0 0.0
2017-Oct-12 10:30N 41°16' W 072°34'0 0.0
2017-Oct-12 10:00N 41°16' W 072°34'0 0.0
2017-Oct-12 09:30N 41°16' W 072°34'0 0.0
2017-Oct-12 09:00N 41°16' W 072°34'0 0.0
2017-Oct-12 08:30N 41°16' W 072°34'0 0.0
2017-Oct-12 08:00N 41°16' W 072°34'0 0.0
2017-Oct-12 07:30N 41°16' W 072°34'0 0.0
2017-Oct-12 07:00N 41°16' W 072°34'0 0.0
2017-Oct-12 06:30N 41°16' W 072°34'0 0.0
2017-Oct-12 06:00N 41°16' W 072°34'0 0.0
2017-Oct-12 05:30N 41°16' W 072°34'0 0.0
2017-Oct-12 05:00N 41°16' W 072°34'0 0.1
2017-Oct-12 04:30N 41°16' W 072°34'0 0.0
2017-Oct-12 04:00N 41°16' W 072°34'0 0.1
2017-Oct-12 03:30N 41°16' W 072°34'0 0.0
2017-Oct-12 03:00N 41°16' W 072°34'0 0.0
2017-Oct-12 02:30N 41°16' W 072°34'0 0.0
2017-Oct-12 02:00N 41°16' W 072°34'0 0.0
2017-Oct-12 01:30N 41°16' W 072°34'0 0.0
2017-Oct-12 01:00N 41°16' W 072°34'0 0.0
2017-Oct-12 00:30N 41°16' W 072°34'0 0.0
2017-Oct-12 00:00N 41°16' W 072°34'0 0.0
2017-Oct-11 23:30N 41°16' W 072°34'0 0.0
2017-Oct-11 23:00N 41°16' W 072°34'0 0.0
2017-Oct-11 22:30N 41°16' W 072°34'0 0.0
2017-Oct-11 22:00N 41°16' W 072°34'0 0.0
2017-Oct-11 21:30N 41°16' W 072°34'0 0.0
2017-Oct-11 21:00N 41°16' W 072°34'0 0.0
2017-Oct-11 20:30N 41°16' W 072°34'0 0.0
2017-Oct-11 20:00N 41°16' W 072°34'0 0.0
2017-Oct-11 19:30N 41°16' W 072°34'0 0.1
2017-Oct-11 19:00N 41°16' W 072°34'0 0.0
2017-Oct-11 18:30N 41°16' W 072°34'0 0.1
2017-Oct-11 18:00N 41°16' W 072°34'0 0.0
2017-Oct-11 17:30N 41°16' W 072°34'0 0.0
2017-Oct-11 17:00N 41°16' W 072°34'0 0.0
2017-Oct-11 00:00N 41°16' W 072°34'0 0.0
2017-Oct-10 23:30N 41°16' W 072°34'0 0.0
2017-Oct-10 23:00N 41°16' W 072°34'0 0.0
2017-Oct-10 22:30N 41°16' W 072°34'0 0.1
2017-Oct-10 22:00N 41°16' W 072°34'0 0.1
2017-Oct-10 21:30N 41°16' W 072°34'0 0.0
2017-Oct-10 21:00N 41°16' W 072°34'0 0.1
2017-Oct-10 20:30N 41°16' W 072°34'0 0.0
2017-Oct-10 20:00N 41°16' W 072°34'0 0.0
2017-Oct-10 19:30N 41°16' W 072°34'0 0.0
2017-Oct-10 19:00N 41°16' W 072°34'0 0.0
2017-Oct-10 18:30N 41°16' W 072°34'0 0.0
2017-Oct-10 18:00N 41°16' W 072°34'0 0.0
2017-Oct-10 17:30N 41°16' W 072°34'0 0.0
2017-Oct-10 17:00N 41°16' W 072°34'0 0.0
2017-Oct-10 16:30N 41°16' W 072°34'0 0.0
2017-Oct-10 16:00N 41°16' W 072°34'0 0.0
2017-Oct-10 15:30N 41°16' W 072°34'0 0.0
2017-Oct-10 15:00N 41°16' W 072°34'0 0.0
2017-Oct-10 14:00N 41°16' W 072°34'0 0.0
2017-Oct-10 13:30N 41°16' W 072°34'0 0.0
2017-Oct-10 13:00N 41°16' W 072°34'0 0.0
2017-Oct-10 12:30N 41°16' W 072°34'0 0.1
2017-Oct-10 12:00N 41°16' W 072°34'0 0.0
2017-Oct-10 11:30N 41°16' W 072°34'0 0.0
2017-Oct-10 11:00N 41°16' W 072°34'0 0.0
2017-Oct-10 10:30N 41°16' W 072°34'0 0.0
2017-Oct-10 10:00N 41°16' W 072°34'0 0.0
2017-Oct-10 09:30N 41°16' W 072°34'0 0.0
2017-Oct-10 09:00N 41°16' W 072°34'0 0.0
2017-Oct-10 08:30N 41°16' W 072°34'0 0.0
2017-Oct-10 08:00N 41°16' W 072°34'0 0.0
2017-Oct-10 07:30N 41°16' W 072°34'0 0.0
2017-Oct-10 07:00N 41°16' W 072°34'0 0.0
2017-Oct-10 06:30N 41°16' W 072°34'0 0.0
2017-Oct-10 06:00N 41°16' W 072°34'0 0.0
2017-Oct-10 05:30N 41°16' W 072°34'0 0.1
2017-Oct-10 05:00N 41°16' W 072°34'0 0.1
2017-Oct-10 04:30N 41°16' W 072°34'0 0.0
2017-Oct-10 04:00N 41°16' W 072°34'0 0.0
2017-Oct-10 03:30N 41°16' W 072°34'0 0.0
2017-Oct-10 03:00N 41°16' W 072°34'0 0.0
2017-Oct-10 02:30N 41°16' W 072°34'0 0.0
2017-Oct-10 02:00N 41°16' W 072°34'0 0.0
2017-Oct-10 01:30N 41°16' W 072°34'0 0.0
2017-Oct-10 01:00N 41°16' W 072°34'0 0.0
2017-Oct-10 00:30N 41°16' W 072°34'0 0.1
2017-Oct-10 00:00N 41°16' W 072°34'0 0.1
2017-Oct-09 23:30N 41°16' W 072°34'0 0.1
2017-Oct-09 23:00N 41°16' W 072°34'0 0.0
2017-Oct-09 22:30N 41°16' W 072°34'0 0.0
2017-Oct-09 22:00N 41°16' W 072°34'0 0.1
2017-Oct-09 21:30N 41°16' W 072°34'0 0.1
2017-Oct-09 21:00N 41°16' W 072°34'0 0.1
2017-Oct-09 20:30N 41°16' W 072°34'0 0.2
2017-Oct-09 20:00N 41°16' W 072°34'0 0.2
2017-Oct-09 19:30N 41°16' W 072°34'0 0.1
2017-Oct-09 19:00N 41°16' W 072°34'0 0.0
2017-Oct-09 18:30N 41°16' W 072°34'0 0.0
2017-Oct-09 18:00N 41°16' W 072°34'0 0.0
2017-Oct-09 17:30N 41°16' W 072°34'0 0.0
2017-Oct-09 17:00N 41°16' W 072°34'0 0.1
2017-Oct-09 16:30N 41°16' W 072°34'0 0.0
2017-Oct-09 16:00N 41°16' W 072°34'0 0.0
2017-Oct-09 15:30N 41°16' W 072°34'0 0.0
2017-Oct-09 15:00N 41°16' W 072°34'0 0.0
2017-Oct-09 14:30N 41°16' W 072°34'0 0.0
2017-Oct-09 14:00N 41°16' W 072°34'0 0.0
2017-Oct-09 13:30N 41°16' W 072°34'0 0.0
2017-Oct-09 13:00N 41°16' W 072°34'0 0.0
2017-Oct-09 12:30N 41°16' W 072°34'0 0.0
2017-Oct-09 12:00N 41°16' W 072°34'0 0.0
2017-Oct-09 11:30N 41°16' W 072°34'0 0.0
2017-Oct-09 11:00N 41°16' W 072°34'0 0.0
2017-Oct-09 10:30N 41°16' W 072°34'0 0.0
2017-Oct-09 10:00N 41°16' W 072°34'0 0.0
2017-Oct-09 09:30N 41°16' W 072°34'0 0.0
2017-Oct-09 09:00N 41°16' W 072°34'0 0.0
2017-Oct-09 08:30N 41°16' W 072°34'0 0.0
2017-Oct-09 08:00N 41°16' W 072°34'0 0.0
2017-Oct-09 07:30N 41°16' W 072°34'0 0.0
2017-Oct-09 07:00N 41°16' W 072°34'0 0.0
2017-Oct-09 06:30N 41°16' W 072°34'0 0.0
2017-Oct-09 06:00N 41°16' W 072°34'0 0.0
2017-Oct-09 05:30N 41°16' W 072°34'0 0.0
2017-Oct-09 05:00N 41°16' W 072°34'0 0.0
2017-Oct-09 04:30N 41°16' W 072°34'0 0.0
2017-Oct-09 04:00N 41°16' W 072°34'0 0.0
2017-Oct-09 03:30N 41°16' W 072°34'0 0.0
2017-Oct-09 03:00N 41°16' W 072°34'0 0.0
2017-Oct-09 02:30N 41°16' W 072°34'0 0.0
2017-Oct-09 02:00N 41°16' W 072°34'0 0.0
2017-Oct-09 01:30N 41°16' W 072°34'0 0.0
2017-Oct-09 01:00N 41°16' W 072°34'0 0.0
2017-Oct-09 00:30N 41°16' W 072°34'0 0.0
2017-Oct-09 00:00N 41°16' W 072°34'0 0.0
2017-Oct-08 23:30N 41°16' W 072°34'0 0.0
2017-Oct-08 23:00N 41°16' W 072°34'0 0.0
2017-Oct-08 22:30N 41°16' W 072°34'0 0.0
2017-Oct-08 22:00N 41°16' W 072°34'0 0.0
2017-Oct-08 21:30N 41°16' W 072°34'0 0.0
2017-Oct-08 21:00N 41°16' W 072°34'0 0.0
2017-Oct-08 20:30N 41°16' W 072°34'0 0.0
2017-Oct-08 20:00N 41°16' W 072°34'0 0.0
2017-Oct-08 19:30N 41°16' W 072°34'0 0.0
2017-Oct-08 19:00N 41°16' W 072°34'0 0.0
2017-Oct-08 18:30N 41°16' W 072°34'0 0.0
2017-Oct-08 18:00N 41°16' W 072°34'0 0.0
2017-Oct-08 17:30N 41°16' W 072°34'0 0.0
2017-Oct-08 17:00N 41°16' W 072°34'0 0.0
2017-Oct-08 16:30N 41°16' W 072°34'0 0.0
2017-Oct-08 16:00N 41°16' W 072°34'0 0.0
2017-Oct-08 15:30N 41°16' W 072°34'0 0.0
2017-Oct-08 15:00N 41°16' W 072°34'0 0.0
2017-Oct-08 14:30N 41°16' W 072°34'0 0.0
2017-Oct-08 14:00N 41°16' W 072°34'0 0.0
2017-Oct-08 13:30N 41°16' W 072°34'0 0.0
2017-Oct-08 13:00N 41°16' W 072°34'0 0.0
2017-Oct-08 12:30N 41°16' W 072°34'0 0.0
2017-Oct-08 12:00N 41°16' W 072°34'0 0.0
2017-Oct-08 11:30N 41°16' W 072°34'0 0.0
2017-Oct-08 11:00N 41°16' W 072°34'0 0.0
2017-Oct-08 10:30N 41°16' W 072°34'0 0.0
2017-Oct-08 10:00N 41°16' W 072°34'0 0.0
2017-Oct-08 09:30N 41°16' W 072°34'0 0.0
2017-Oct-08 09:00N 41°16' W 072°34'0 0.0
2017-Oct-08 08:30N 41°16' W 072°34'0 0.0
2017-Oct-08 08:00N 41°16' W 072°34'0 0.0
2017-Oct-08 07:30N 41°16' W 072°34'0 0.0
2017-Oct-08 07:00N 41°16' W 072°34'0 0.0
2017-Oct-08 06:30N 41°16' W 072°34'0 0.0
2017-Oct-08 06:00N 41°16' W 072°34'0 0.0
2017-Oct-08 05:30N 41°16' W 072°34'0 0.0
2017-Oct-08 05:00N 41°16' W 072°34'0 0.0
2017-Oct-08 04:30N 41°16' W 072°34'0 0.0
2017-Oct-08 04:00N 41°16' W 072°34'0 0.0
2017-Oct-08 03:30N 41°16' W 072°34'0 0.0
2017-Oct-08 03:00N 41°16' W 072°34'0 0.0
2017-Oct-08 02:30N 41°16' W 072°34'0 0.0
2017-Oct-08 02:00N 41°16' W 072°34'0 0.0
2017-Oct-08 01:30N 41°16' W 072°34'0 0.0
2017-Oct-08 01:00N 41°16' W 072°34'0 0.0
2017-Oct-08 00:30N 41°16' W 072°34'0 0.0
2017-Oct-08 00:00N 41°16' W 072°34'0 0.0
2017-Oct-07 23:30N 41°16' W 072°34'0 0.0
2017-Oct-07 23:00N 41°16' W 072°34'0 0.0
2017-Oct-07 22:30N 41°16' W 072°34'0 0.0
2017-Oct-07 22:00N 41°16' W 072°34'0 0.0
2017-Oct-07 21:30N 41°16' W 072°34'0 0.0
2017-Oct-07 21:00N 41°16' W 072°34'0 0.0
2017-Oct-07 20:30N 41°16' W 072°34'0 0.0
2017-Oct-07 20:00N 41°16' W 072°34'0 0.0
2017-Oct-07 19:30N 41°16' W 072°34'0 0.0
2017-Oct-07 19:00N 41°16' W 072°34'0 0.0
2017-Oct-07 18:30N 41°16' W 072°34'0 0.0
2017-Oct-07 18:00N 41°16' W 072°34'0 0.0
2017-Oct-07 17:30N 41°16' W 072°34'0 0.0
2017-Oct-07 17:00N 41°16' W 072°34'0 0.0
2017-Oct-07 16:30N 41°16' W 072°34'0 0.0
2017-Oct-07 16:00N 41°16' W 072°34'0 0.0
2017-Oct-07 15:30N 41°16' W 072°34'  

Dump ship's entire track history